sensor_id;sensor_type;location;lat;lon;timestamp;P1;durP1;ratioP1;P2;durP2;ratioP2
21352;SDS011;10834;52.268;6.770;2023-11-19T00:00:57;17.00;;;12.63;;
21352;SDS011;10834;52.268;6.770;2023-11-19T00:03:41;17.70;;;13.70;;
21352;SDS011;10834;52.268;6.770;2023-11-19T00:06:25;18.87;;;14.07;;
21352;SDS011;10834;52.268;6.770;2023-11-19T00:09:09;18.90;;;14.20;;
21352;SDS011;10834;52.268;6.770;2023-11-19T00:11:53;19.90;;;14.13;;
21352;SDS011;10834;52.268;6.770;2023-11-19T00:14:38;22.57;;;16.60;;
21352;SDS011;10834;52.268;6.770;2023-11-19T00:17:22;20.83;;;16.43;;
21352;SDS011;10834;52.268;6.770;2023-11-19T00:20:07;21.27;;;15.00;;
21352;SDS011;10834;52.268;6.770;2023-11-19T00:22:52;25.20;;;16.63;;
21352;SDS011;10834;52.268;6.770;2023-11-19T00:25:36;25.43;;;17.37;;
21352;SDS011;10834;52.268;6.770;2023-11-19T00:28:22;23.10;;;16.40;;
21352;SDS011;10834;52.268;6.770;2023-11-19T00:31:08;21.40;;;15.37;;
21352;SDS011;10834;52.268;6.770;2023-11-19T00:33:52;26.67;;;18.27;;
21352;SDS011;10834;52.268;6.770;2023-11-19T00:36:36;24.37;;;17.77;;
21352;SDS011;10834;52.268;6.770;2023-11-19T00:39:20;24.27;;;16.27;;
21352;SDS011;10834;52.268;6.770;2023-11-19T00:42:05;23.60;;;17.17;;
21352;SDS011;10834;52.268;6.770;2023-11-19T00:44:49;26.47;;;17.23;;
21352;SDS011;10834;52.268;6.770;2023-11-19T00:47:34;22.73;;;16.50;;
21352;SDS011;10834;52.268;6.770;2023-11-19T00:50:19;25.73;;;17.13;;
21352;SDS011;10834;52.268;6.770;2023-11-19T00:53:03;25.73;;;17.57;;
21352;SDS011;10834;52.268;6.770;2023-11-19T00:55:47;24.77;;;17.67;;
21352;SDS011;10834;52.268;6.770;2023-11-19T00:58:31;27.70;;;17.33;;
21352;SDS011;10834;52.268;6.770;2023-11-19T01:01:16;24.00;;;17.33;;
21352;SDS011;10834;52.268;6.770;2023-11-19T01:04:00;23.30;;;17.30;;
21352;SDS011;10834;52.268;6.770;2023-11-19T01:06:44;26.17;;;17.43;;
21352;SDS011;10834;52.268;6.770;2023-11-19T01:09:29;27.63;;;18.47;;
21352;SDS011;10834;52.268;6.770;2023-11-19T01:12:15;28.57;;;17.57;;
21352;SDS011;10834;52.268;6.770;2023-11-19T01:15:00;28.30;;;18.10;;
21352;SDS011;10834;52.268;6.770;2023-11-19T01:17:44;26.50;;;18.57;;
21352;SDS011;10834;52.268;6.770;2023-11-19T01:20:29;25.23;;;17.20;;
21352;SDS011;10834;52.268;6.770;2023-11-19T01:23:13;26.63;;;17.63;;
21352;SDS011;10834;52.268;6.770;2023-11-19T01:25:57;24.43;;;17.53;;
21352;SDS011;10834;52.268;6.770;2023-11-19T01:28:41;31.57;;;18.10;;
21352;SDS011;10834;52.268;6.770;2023-11-19T01:31:29;24.43;;;16.43;;
21352;SDS011;10834;52.268;6.770;2023-11-19T01:34:13;25.00;;;16.90;;
21352;SDS011;10834;52.268;6.770;2023-11-19T01:36:57;25.80;;;17.40;;
21352;SDS011;10834;52.268;6.770;2023-11-19T01:39:44;28.63;;;17.87;;
21352;SDS011;10834;52.268;6.770;2023-11-19T01:42:29;23.47;;;15.97;;
21352;SDS011;10834;52.268;6.770;2023-11-19T01:45:19;24.60;;;15.17;;
21352;SDS011;10834;52.268;6.770;2023-11-19T01:48:11;24.43;;;16.03;;
21352;SDS011;10834;52.268;6.770;2023-11-19T01:50:57;21.90;;;16.37;;
21352;SDS011;10834;52.268;6.770;2023-11-19T01:53:43;31.40;;;18.27;;
21352;SDS011;10834;52.268;6.770;2023-11-19T01:56:28;25.03;;;16.10;;
21352;SDS011;10834;52.268;6.770;2023-11-19T01:59:14;27.47;;;17.10;;
21352;SDS011;10834;52.268;6.770;2023-11-19T02:01:59;24.57;;;15.23;;
21352;SDS011;10834;52.268;6.770;2023-11-19T02:04:43;22.60;;;15.13;;
21352;SDS011;10834;52.268;6.770;2023-11-19T02:07:28;29.77;;;18.90;;
21352;SDS011;10834;52.268;6.770;2023-11-19T02:10:13;28.17;;;15.23;;
21352;SDS011;10834;52.268;6.770;2023-11-19T02:12:58;26.53;;;14.40;;
21352;SDS011;10834;52.268;6.770;2023-11-19T02:15:43;24.17;;;15.20;;
21352;SDS011;10834;52.268;6.770;2023-11-19T02:18:27;25.17;;;14.33;;
21352;SDS011;10834;52.268;6.770;2023-11-19T02:21:12;26.47;;;13.83;;
21352;SDS011;10834;52.268;6.770;2023-11-19T02:23:58;28.03;;;12.87;;
21352;SDS011;10834;52.268;6.770;2023-11-19T02:27:02;24.17;;;14.43;;
21352;SDS011;10834;52.268;6.770;2023-11-19T02:29:51;29.80;;;14.33;;
21352;SDS011;10834;52.268;6.770;2023-11-19T02:32:37;24.10;;;14.07;;
21352;SDS011;10834;52.268;6.770;2023-11-19T02:35:24;20.97;;;12.53;;
21352;SDS011;10834;52.268;6.770;2023-11-19T02:38:09;23.67;;;12.90;;
21352;SDS011;10834;52.268;6.770;2023-11-19T02:40:54;30.10;;;12.63;;
21352;SDS011;10834;52.268;6.770;2023-11-19T02:43:38;26.90;;;12.80;;
21352;SDS011;10834;52.268;6.770;2023-11-19T02:46:22;27.97;;;12.67;;
21352;SDS011;10834;52.268;6.770;2023-11-19T02:49:06;27.93;;;12.03;;
21352;SDS011;10834;52.268;6.770;2023-11-19T02:51:50;25.23;;;12.17;;
21352;SDS011;10834;52.268;6.770;2023-11-19T02:54:34;26.77;;;11.50;;
21352;SDS011;10834;52.268;6.770;2023-11-19T02:57:18;23.33;;;10.63;;
21352;SDS011;10834;52.268;6.770;2023-11-19T03:00:06;21.13;;;9.83;;
21352;SDS011;10834;52.268;6.770;2023-11-19T03:02:55;24.03;;;10.30;;
21352;SDS011;10834;52.268;6.770;2023-11-19T03:05:43;22.27;;;10.47;;
21352;SDS011;10834;52.268;6.770;2023-11-19T03:08:28;21.60;;;9.77;;
21352;SDS011;10834;52.268;6.770;2023-11-19T03:11:13;28.17;;;9.40;;
21352;SDS011;10834;52.268;6.770;2023-11-19T03:13:58;26.90;;;9.47;;
21352;SDS011;10834;52.268;6.770;2023-11-19T03:16:45;28.13;;;8.87;;
21352;SDS011;10834;52.268;6.770;2023-11-19T03:19:29;28.37;;;8.33;;
21352;SDS011;10834;52.268;6.770;2023-11-19T03:22:13;26.73;;;8.00;;
21352;SDS011;10834;52.268;6.770;2023-11-19T03:24:58;17.30;;;7.90;;
21352;SDS011;10834;52.268;6.770;2023-11-19T03:27:42;17.30;;;6.47;;
21352;SDS011;10834;52.268;6.770;2023-11-19T03:30:26;25.60;;;7.73;;
21352;SDS011;10834;52.268;6.770;2023-11-19T03:33:11;33.77;;;7.90;;
21352;SDS011;10834;52.268;6.770;2023-11-19T03:35:56;26.33;;;7.27;;
21352;SDS011;10834;52.268;6.770;2023-11-19T03:38:40;19.87;;;6.83;;
21352;SDS011;10834;52.268;6.770;2023-11-19T03:41:26;26.40;;;7.10;;
21352;SDS011;10834;52.268;6.770;2023-11-19T03:44:10;30.53;;;9.00;;
21352;SDS011;10834;52.268;6.770;2023-11-19T03:46:54;22.47;;;6.33;;
21352;SDS011;10834;52.268;6.770;2023-11-19T03:49:38;29.33;;;6.80;;
21352;SDS011;10834;52.268;6.770;2023-11-19T03:52:22;20.63;;;6.87;;
21352;SDS011;10834;52.268;6.770;2023-11-19T03:55:07;21.23;;;6.27;;
21352;SDS011;10834;52.268;6.770;2023-11-19T03:57:52;29.50;;;8.20;;
21352;SDS011;10834;52.268;6.770;2023-11-19T04:00:36;24.77;;;6.53;;
21352;SDS011;10834;52.268;6.770;2023-11-19T04:03:20;31.43;;;7.17;;
21352;SDS011;10834;52.268;6.770;2023-11-19T04:06:04;29.23;;;6.77;;
21352;SDS011;10834;52.268;6.770;2023-11-19T04:08:49;28.97;;;7.63;;
21352;SDS011;10834;52.268;6.770;2023-11-19T04:11:33;34.97;;;9.70;;
21352;SDS011;10834;52.268;6.770;2023-11-19T04:14:17;31.27;;;7.43;;
21352;SDS011;10834;52.268;6.770;2023-11-19T04:17:02;30.27;;;6.00;;
21352;SDS011;10834;52.268;6.770;2023-11-19T04:19:46;27.43;;;5.80;;
21352;SDS011;10834;52.268;6.770;2023-11-19T04:22:30;28.60;;;6.17;;
21352;SDS011;10834;52.268;6.770;2023-11-19T04:25:14;30.93;;;5.67;;
21352;SDS011;10834;52.268;6.770;2023-11-19T04:28:00;35.80;;;7.77;;
21352;SDS011;10834;52.268;6.770;2023-11-19T04:30:44;36.73;;;6.40;;
21352;SDS011;10834;52.268;6.770;2023-11-19T04:33:28;33.53;;;5.93;;
21352;SDS011;10834;52.268;6.770;2023-11-19T04:36:12;39.90;;;6.70;;
21352;SDS011;10834;52.268;6.770;2023-11-19T04:38:58;32.23;;;5.63;;
21352;SDS011;10834;52.268;6.770;2023-11-19T04:41:46;37.37;;;7.17;;
21352;SDS011;10834;52.268;6.770;2023-11-19T04:44:32;33.27;;;6.90;;
21352;SDS011;10834;52.268;6.770;2023-11-19T04:47:17;31.93;;;5.77;;
21352;SDS011;10834;52.268;6.770;2023-11-19T04:50:01;29.00;;;5.87;;
21352;SDS011;10834;52.268;6.770;2023-11-19T04:52:46;33.10;;;8.50;;
21352;SDS011;10834;52.268;6.770;2023-11-19T04:55:30;39.23;;;6.20;;
21352;SDS011;10834;52.268;6.770;2023-11-19T04:58:14;33.57;;;6.60;;
21352;SDS011;10834;52.268;6.770;2023-11-19T05:00:58;30.77;;;6.50;;
21352;SDS011;10834;52.268;6.770;2023-11-19T05:03:42;26.13;;;5.17;;
21352;SDS011;10834;52.268;6.770;2023-11-19T05:06:30;33.27;;;7.67;;
21352;SDS011;10834;52.268;6.770;2023-11-19T05:09:15;37.83;;;7.07;;
21352;SDS011;10834;52.268;6.770;2023-11-19T05:11:59;43.57;;;8.43;;
21352;SDS011;10834;52.268;6.770;2023-11-19T05:14:43;38.03;;;6.60;;
21352;SDS011;10834;52.268;6.770;2023-11-19T05:17:33;41.77;;;6.67;;
21352;SDS011;10834;52.268;6.770;2023-11-19T05:20:17;29.80;;;5.87;;
21352;SDS011;10834;52.268;6.770;2023-11-19T05:23:01;30.13;;;5.43;;
21352;SDS011;10834;52.268;6.770;2023-11-19T05:25:46;29.83;;;6.40;;
21352;SDS011;10834;52.268;6.770;2023-11-19T05:28:31;33.07;;;6.87;;
21352;SDS011;10834;52.268;6.770;2023-11-19T05:31:15;41.50;;;8.00;;
21352;SDS011;10834;52.268;6.770;2023-11-19T05:34:01;37.23;;;6.67;;
21352;SDS011;10834;52.268;6.770;2023-11-19T05:36:45;41.87;;;7.73;;
21352;SDS011;10834;52.268;6.770;2023-11-19T05:39:30;33.83;;;6.70;;
21352;SDS011;10834;52.268;6.770;2023-11-19T05:42:14;35.87;;;8.87;;
21352;SDS011;10834;52.268;6.770;2023-11-19T05:44:58;33.53;;;7.53;;
21352;SDS011;10834;52.268;6.770;2023-11-19T05:47:42;26.30;;;6.07;;
21352;SDS011;10834;52.268;6.770;2023-11-19T05:50:26;39.10;;;7.17;;
21352;SDS011;10834;52.268;6.770;2023-11-19T05:53:10;38.40;;;6.67;;
21352;SDS011;10834;52.268;6.770;2023-11-19T05:55:57;35.00;;;7.70;;
21352;SDS011;10834;52.268;6.770;2023-11-19T05:58:41;45.27;;;7.20;;
21352;SDS011;10834;52.268;6.770;2023-11-19T06:01:28;31.47;;;7.37;;
21352;SDS011;10834;52.268;6.770;2023-11-19T06:04:12;35.20;;;7.63;;
21352;SDS011;10834;52.268;6.770;2023-11-19T06:06:56;40.50;;;7.53;;
21352;SDS011;10834;52.268;6.770;2023-11-19T06:09:41;40.77;;;7.47;;
21352;SDS011;10834;52.268;6.770;2023-11-19T06:12:26;36.00;;;7.47;;
21352;SDS011;10834;52.268;6.770;2023-11-19T06:15:11;35.03;;;6.80;;
21352;SDS011;10834;52.268;6.770;2023-11-19T06:17:55;28.50;;;6.40;;
21352;SDS011;10834;52.268;6.770;2023-11-19T06:20:41;22.27;;;5.37;;
21352;SDS011;10834;52.268;6.770;2023-11-19T06:23:26;41.40;;;6.60;;
21352;SDS011;10834;52.268;6.770;2023-11-19T06:26:10;28.80;;;6.37;;
21352;SDS011;10834;52.268;6.770;2023-11-19T06:28:54;38.13;;;6.77;;
21352;SDS011;10834;52.268;6.770;2023-11-19T06:31:40;27.83;;;7.17;;
21352;SDS011;10834;52.268;6.770;2023-11-19T06:34:25;36.40;;;7.60;;
21352;SDS011;10834;52.268;6.770;2023-11-19T06:37:09;38.23;;;7.00;;
21352;SDS011;10834;52.268;6.770;2023-11-19T06:39:53;38.00;;;7.90;;
21352;SDS011;10834;52.268;6.770;2023-11-19T06:42:38;41.33;;;6.73;;
21352;SDS011;10834;52.268;6.770;2023-11-19T06:45:22;31.60;;;8.30;;
21352;SDS011;10834;52.268;6.770;2023-11-19T06:48:07;36.23;;;7.00;;
21352;SDS011;10834;52.268;6.770;2023-11-19T06:50:51;32.17;;;5.87;;
21352;SDS011;10834;52.268;6.770;2023-11-19T06:53:35;35.17;;;6.20;;
21352;SDS011;10834;52.268;6.770;2023-11-19T06:56:20;27.63;;;5.87;;
21352;SDS011;10834;52.268;6.770;2023-11-19T06:59:05;28.57;;;5.77;;
21352;SDS011;10834;52.268;6.770;2023-11-19T07:01:49;40.77;;;6.93;;
21352;SDS011;10834;52.268;6.770;2023-11-19T07:04:33;39.20;;;6.37;;
21352;SDS011;10834;52.268;6.770;2023-11-19T07:07:17;44.13;;;10.20;;
21352;SDS011;10834;52.268;6.770;2023-11-19T07:10:02;41.90;;;7.07;;
21352;SDS011;10834;52.268;6.770;2023-11-19T07:12:47;36.27;;;6.57;;
21352;SDS011;10834;52.268;6.770;2023-11-19T07:15:34;25.53;;;5.63;;
21352;SDS011;10834;52.268;6.770;2023-11-19T07:18:18;31.10;;;5.87;;
21352;SDS011;10834;52.268;6.770;2023-11-19T07:21:02;25.93;;;5.43;;
21352;SDS011;10834;52.268;6.770;2023-11-19T07:23:48;28.93;;;7.47;;
21352;SDS011;10834;52.268;6.770;2023-11-19T07:26:33;37.47;;;5.83;;
21352;SDS011;10834;52.268;6.770;2023-11-19T07:29:17;34.70;;;8.77;;
21352;SDS011;10834;52.268;6.770;2023-11-19T07:32:01;32.97;;;6.40;;
21352;SDS011;10834;52.268;6.770;2023-11-19T07:34:45;44.37;;;7.87;;
21352;SDS011;10834;52.268;6.770;2023-11-19T07:37:29;32.10;;;6.60;;
21352;SDS011;10834;52.268;6.770;2023-11-19T07:40:14;36.47;;;6.23;;
21352;SDS011;10834;52.268;6.770;2023-11-19T07:42:58;33.83;;;9.00;;
21352;SDS011;10834;52.268;6.770;2023-11-19T07:45:42;33.20;;;6.00;;
21352;SDS011;10834;52.268;6.770;2023-11-19T07:48:29;30.77;;;6.07;;
21352;SDS011;10834;52.268;6.770;2023-11-19T07:51:14;34.53;;;6.33;;
21352;SDS011;10834;52.268;6.770;2023-11-19T07:53:58;38.27;;;6.80;;
21352;SDS011;10834;52.268;6.770;2023-11-19T07:56:42;36.10;;;5.83;;
21352;SDS011;10834;52.268;6.770;2023-11-19T07:59:26;37.43;;;6.80;;
21352;SDS011;10834;52.268;6.770;2023-11-19T08:02:10;38.57;;;7.97;;
21352;SDS011;10834;52.268;6.770;2023-11-19T08:04:54;31.83;;;5.90;;
21352;SDS011;10834;52.268;6.770;2023-11-19T08:07:38;30.90;;;5.80;;
21352;SDS011;10834;52.268;6.770;2023-11-19T08:10:22;27.70;;;6.40;;
21352;SDS011;10834;52.268;6.770;2023-11-19T08:13:07;35.40;;;7.37;;
21352;SDS011;10834;52.268;6.770;2023-11-19T08:15:51;32.77;;;5.80;;
21352;SDS011;10834;52.268;6.770;2023-11-19T08:18:35;31.23;;;8.13;;
21352;SDS011;10834;52.268;6.770;2023-11-19T08:21:20;43.57;;;6.97;;
21352;SDS011;10834;52.268;6.770;2023-11-19T08:24:06;47.90;;;9.40;;
21352;SDS011;10834;52.268;6.770;2023-11-19T08:26:50;33.50;;;7.77;;
21352;SDS011;10834;52.268;6.770;2023-11-19T08:29:34;31.60;;;6.13;;
21352;SDS011;10834;52.268;6.770;2023-11-19T08:32:18;31.83;;;5.90;;
21352;SDS011;10834;52.268;6.770;2023-11-19T08:35:02;28.57;;;6.90;;
21352;SDS011;10834;52.268;6.770;2023-11-19T08:37:47;41.97;;;7.20;;
21352;SDS011;10834;52.268;6.770;2023-11-19T08:40:30;39.33;;;6.50;;
21352;SDS011;10834;52.268;6.770;2023-11-19T08:43:15;30.07;;;6.83;;
21352;SDS011;10834;52.268;6.770;2023-11-19T08:46:00;34.87;;;8.03;;
21352;SDS011;10834;52.268;6.770;2023-11-19T08:48:44;36.07;;;6.40;;
21352;SDS011;10834;52.268;6.770;2023-11-19T08:51:29;37.57;;;6.00;;
21352;SDS011;10834;52.268;6.770;2023-11-19T08:54:13;26.73;;;5.60;;
21352;SDS011;10834;52.268;6.770;2023-11-19T08:56:57;27.33;;;6.53;;
21352;SDS011;10834;52.268;6.770;2023-11-19T08:59:41;33.53;;;6.63;;
21352;SDS011;10834;52.268;6.770;2023-11-19T09:02:25;23.80;;;4.97;;
21352;SDS011;10834;52.268;6.770;2023-11-19T09:05:09;24.97;;;5.80;;
21352;SDS011;10834;52.268;6.770;2023-11-19T09:07:53;26.00;;;6.07;;
21352;SDS011;10834;52.268;6.770;2023-11-19T09:10:38;36.73;;;11.23;;
21352;SDS011;10834;52.268;6.770;2023-11-19T09:13:22;31.17;;;6.60;;
21352;SDS011;10834;52.268;6.770;2023-11-19T09:16:06;29.97;;;5.57;;
21352;SDS011;10834;52.268;6.770;2023-11-19T09:18:52;23.93;;;5.83;;
21352;SDS011;10834;52.268;6.770;2023-11-19T09:21:36;32.27;;;6.23;;
21352;SDS011;10834;52.268;6.770;2023-11-19T09:24:23;39.67;;;6.97;;
21352;SDS011;10834;52.268;6.770;2023-11-19T09:27:07;33.30;;;6.47;;
21352;SDS011;10834;52.268;6.770;2023-11-19T09:29:51;26.83;;;7.50;;
21352;SDS011;10834;52.268;6.770;2023-11-19T09:32:40;33.03;;;7.10;;
21352;SDS011;10834;52.268;6.770;2023-11-19T09:35:24;36.67;;;9.27;;
21352;SDS011;10834;52.268;6.770;2023-11-19T09:38:09;34.70;;;8.27;;
21352;SDS011;10834;52.268;6.770;2023-11-19T09:40:53;26.83;;;7.67;;
21352;SDS011;10834;52.268;6.770;2023-11-19T09:43:37;31.47;;;7.20;;
21352;SDS011;10834;52.268;6.770;2023-11-19T09:46:23;34.97;;;6.17;;
21352;SDS011;10834;52.268;6.770;2023-11-19T09:49:08;36.13;;;7.43;;
21352;SDS011;10834;52.268;6.770;2023-11-19T09:51:53;33.90;;;7.17;;
21352;SDS011;10834;52.268;6.770;2023-11-19T09:54:38;36.93;;;7.10;;
21352;SDS011;10834;52.268;6.770;2023-11-19T09:57:22;31.03;;;5.83;;
21352;SDS011;10834;52.268;6.770;2023-11-19T10:00:07;33.57;;;6.77;;
21352;SDS011;10834;52.268;6.770;2023-11-19T10:02:54;31.00;;;6.77;;
21352;SDS011;10834;52.268;6.770;2023-11-19T10:05:40;29.80;;;7.43;;
21352;SDS011;10834;52.268;6.770;2023-11-19T10:08:24;33.77;;;6.97;;
21352;SDS011;10834;52.268;6.770;2023-11-19T10:11:08;33.90;;;7.30;;
21352;SDS011;10834;52.268;6.770;2023-11-19T10:13:56;33.20;;;4.67;;
21352;SDS011;10834;52.268;6.770;2023-11-19T10:16:42;28.87;;;5.73;;
21352;SDS011;10834;52.268;6.770;2023-11-19T10:19:30;30.73;;;7.00;;
21352;SDS011;10834;52.268;6.770;2023-11-19T10:22:15;27.13;;;6.10;;
21352;SDS011;10834;52.268;6.770;2023-11-19T10:25:00;27.87;;;5.73;;
21352;SDS011;10834;52.268;6.770;2023-11-19T10:27:44;33.47;;;6.33;;
21352;SDS011;10834;52.268;6.770;2023-11-19T10:30:29;26.43;;;6.13;;
21352;SDS011;10834;52.268;6.770;2023-11-19T10:33:14;34.43;;;8.40;;
21352;SDS011;10834;52.268;6.770;2023-11-19T10:36:00;35.07;;;7.93;;
21352;SDS011;10834;52.268;6.770;2023-11-19T10:38:55;37.70;;;6.13;;
21352;SDS011;10834;52.268;6.770;2023-11-19T10:41:40;32.30;;;6.90;;
21352;SDS011;10834;52.268;6.770;2023-11-19T10:44:33;24.80;;;5.47;;
21352;SDS011;10834;52.268;6.770;2023-11-19T10:47:19;20.40;;;5.57;;
21352;SDS011;10834;52.268;6.770;2023-11-19T10:50:05;27.97;;;5.63;;
21352;SDS011;10834;52.268;6.770;2023-11-19T10:52:51;27.23;;;5.63;;
21352;SDS011;10834;52.268;6.770;2023-11-19T10:55:40;29.43;;;6.93;;
21352;SDS011;10834;52.268;6.770;2023-11-19T10:58:24;29.93;;;5.63;;
21352;SDS011;10834;52.268;6.770;2023-11-19T11:01:19;19.77;;;5.63;;
21352;SDS011;10834;52.268;6.770;2023-11-19T11:04:10;34.70;;;7.40;;
21352;SDS011;10834;52.268;6.770;2023-11-19T11:06:59;34.57;;;6.30;;
21352;SDS011;10834;52.268;6.770;2023-11-19T11:09:45;31.23;;;5.20;;
21352;SDS011;10834;52.268;6.770;2023-11-19T11:12:33;26.97;;;6.40;;
21352;SDS011;10834;52.268;6.770;2023-11-19T11:15:20;27.23;;;6.10;;
21352;SDS011;10834;52.268;6.770;2023-11-19T11:18:05;29.80;;;6.97;;
21352;SDS011;10834;52.268;6.770;2023-11-19T11:20:57;32.90;;;7.27;;
21352;SDS011;10834;52.268;6.770;2023-11-19T11:23:59;29.23;;;6.43;;
21352;SDS011;10834;52.268;6.770;2023-11-19T11:26:51;30.40;;;6.07;;
21352;SDS011;10834;52.268;6.770;2023-11-19T11:33:11;28.07;;;6.37;;
21352;SDS011;10834;52.268;6.770;2023-11-19T11:39:03;25.33;;;6.23;;
21352;SDS011;10834;52.268;6.770;2023-11-19T11:50:50;34.00;;;5.13;;
21352;SDS011;10834;52.268;6.770;2023-11-19T11:53:36;25.80;;;5.73;;
21352;SDS011;10834;52.268;6.770;2023-11-19T11:56:20;31.13;;;5.17;;
21352;SDS011;10834;52.268;6.770;2023-11-19T11:59:16;26.83;;;6.43;;
21352;SDS011;10834;52.268;6.770;2023-11-19T12:02:02;26.23;;;4.80;;
21352;SDS011;10834;52.268;6.770;2023-11-19T12:04:48;30.97;;;5.60;;
21352;SDS011;10834;52.268;6.770;2023-11-19T12:07:35;25.63;;;5.30;;
21352;SDS011;10834;52.268;6.770;2023-11-19T12:10:22;32.80;;;5.60;;
21352;SDS011;10834;52.268;6.770;2023-11-19T12:13:08;24.70;;;4.53;;
21352;SDS011;10834;52.268;6.770;2023-11-19T12:18:40;23.63;;;4.57;;
21352;SDS011;10834;52.268;6.770;2023-11-19T12:21:28;24.97;;;4.07;;
21352;SDS011;10834;52.268;6.770;2023-11-19T12:24:13;24.67;;;5.30;;
21352;SDS011;10834;52.268;6.770;2023-11-19T12:26:57;20.83;;;4.33;;
21352;SDS011;10834;52.268;6.770;2023-11-19T12:29:42;26.43;;;5.13;;
21352;SDS011;10834;52.268;6.770;2023-11-19T12:32:36;23.40;;;4.90;;
21352;SDS011;10834;52.268;6.770;2023-11-19T12:35:25;28.13;;;5.23;;
21352;SDS011;10834;52.268;6.770;2023-11-19T12:38:23;27.60;;;7.30;;
21352;SDS011;10834;52.268;6.770;2023-11-19T12:41:09;22.23;;;4.20;;
21352;SDS011;10834;52.268;6.770;2023-11-19T12:44:08;26.50;;;4.63;;
21352;SDS011;10834;52.268;6.770;2023-11-19T12:47:26;23.43;;;5.23;;
21352;SDS011;10834;52.268;6.770;2023-11-19T12:50:04;28.07;;;4.67;;
21352;SDS011;10834;52.268;6.770;2023-11-19T12:52:57;26.10;;;6.23;;
21352;SDS011;10834;52.268;6.770;2023-11-19T12:55:41;15.87;;;4.50;;
21352;SDS011;10834;52.268;6.770;2023-11-19T13:01:17;26.67;;;5.13;;
21352;SDS011;10834;52.268;6.770;2023-11-19T13:04:17;20.53;;;4.63;;
21352;SDS011;10834;52.268;6.770;2023-11-19T13:07:03;26.90;;;4.50;;
21352;SDS011;10834;52.268;6.770;2023-11-19T13:09:48;17.63;;;4.03;;
21352;SDS011;10834;52.268;6.770;2023-11-19T13:12:32;28.33;;;5.03;;
21352;SDS011;10834;52.268;6.770;2023-11-19T13:15:23;21.23;;;4.67;;
21352;SDS011;10834;52.268;6.770;2023-11-19T13:18:09;24.60;;;4.60;;
21352;SDS011;10834;52.268;6.770;2023-11-19T13:20:53;17.43;;;5.17;;
21352;SDS011;10834;52.268;6.770;2023-11-19T13:23:40;28.57;;;4.77;;
21352;SDS011;10834;52.268;6.770;2023-11-19T13:26:25;23.63;;;5.23;;
21352;SDS011;10834;52.268;6.770;2023-11-19T13:29:10;30.70;;;6.87;;
21352;SDS011;10834;52.268;6.770;2023-11-19T13:31:54;15.17;;;3.90;;
21352;SDS011;10834;52.268;6.770;2023-11-19T13:34:38;19.27;;;4.60;;
21352;SDS011;10834;52.268;6.770;2023-11-19T13:37:23;19.90;;;4.30;;
21352;SDS011;10834;52.268;6.770;2023-11-19T13:40:08;23.70;;;5.03;;
21352;SDS011;10834;52.268;6.770;2023-11-19T13:42:58;23.93;;;4.40;;
21352;SDS011;10834;52.268;6.770;2023-11-19T13:45:42;23.47;;;4.10;;
21352;SDS011;10834;52.268;6.770;2023-11-19T13:48:26;19.83;;;3.53;;
21352;SDS011;10834;52.268;6.770;2023-11-19T13:51:12;28.93;;;4.77;;
21352;SDS011;10834;52.268;6.770;2023-11-19T13:53:56;20.13;;;3.73;;
21352;SDS011;10834;52.268;6.770;2023-11-19T13:56:40;20.23;;;3.43;;
21352;SDS011;10834;52.268;6.770;2023-11-19T13:59:24;11.93;;;3.60;;
21352;SDS011;10834;52.268;6.770;2023-11-19T14:02:08;21.43;;;6.47;;
21352;SDS011;10834;52.268;6.770;2023-11-19T14:04:53;15.07;;;3.67;;
21352;SDS011;10834;52.268;6.770;2023-11-19T14:07:40;21.17;;;3.60;;
21352;SDS011;10834;52.268;6.770;2023-11-19T14:10:25;18.37;;;3.37;;
21352;SDS011;10834;52.268;6.770;2023-11-19T14:13:09;16.30;;;2.93;;
21352;SDS011;10834;52.268;6.770;2023-11-19T14:15:55;19.63;;;3.57;;
21352;SDS011;10834;52.268;6.770;2023-11-19T14:18:39;17.93;;;4.30;;
21352;SDS011;10834;52.268;6.770;2023-11-19T14:21:23;20.23;;;3.23;;
21352;SDS011;10834;52.268;6.770;2023-11-19T14:24:08;19.17;;;3.70;;
21352;SDS011;10834;52.268;6.770;2023-11-19T14:26:52;17.77;;;4.97;;
21352;SDS011;10834;52.268;6.770;2023-11-19T14:29:37;20.37;;;3.70;;
21352;SDS011;10834;52.268;6.770;2023-11-19T14:32:21;18.57;;;4.97;;
21352;SDS011;10834;52.268;6.770;2023-11-19T14:35:05;17.37;;;2.90;;
21352;SDS011;10834;52.268;6.770;2023-11-19T14:37:50;14.70;;;3.33;;
21352;SDS011;10834;52.268;6.770;2023-11-19T14:40:34;23.60;;;3.40;;
21352;SDS011;10834;52.268;6.770;2023-11-19T14:43:19;16.13;;;3.47;;
21352;SDS011;10834;52.268;6.770;2023-11-19T14:46:03;21.80;;;4.33;;
21352;SDS011;10834;52.268;6.770;2023-11-19T14:48:48;17.23;;;3.50;;
21352;SDS011;10834;52.268;6.770;2023-11-19T14:51:32;21.13;;;4.23;;
21352;SDS011;10834;52.268;6.770;2023-11-19T14:54:18;25.33;;;4.47;;
21352;SDS011;10834;52.268;6.770;2023-11-19T14:57:02;22.80;;;4.23;;
21352;SDS011;10834;52.268;6.770;2023-11-19T14:59:47;21.80;;;4.37;;
21352;SDS011;10834;52.268;6.770;2023-11-19T15:02:31;20.83;;;4.50;;
21352;SDS011;10834;52.268;6.770;2023-11-19T15:05:15;16.27;;;4.10;;
21352;SDS011;10834;52.268;6.770;2023-11-19T15:07:59;25.20;;;5.37;;
21352;SDS011;10834;52.268;6.770;2023-11-19T15:10:44;19.20;;;4.00;;
21352;SDS011;10834;52.268;6.770;2023-11-19T15:13:28;23.20;;;3.70;;
21352;SDS011;10834;52.268;6.770;2023-11-19T15:16:13;15.37;;;3.60;;
21352;SDS011;10834;52.268;6.770;2023-11-19T15:18:58;17.97;;;4.27;;
21352;SDS011;10834;52.268;6.770;2023-11-19T15:21:43;23.17;;;6.47;;
21352;SDS011;10834;52.268;6.770;2023-11-19T15:24:27;19.77;;;4.30;;
21352;SDS011;10834;52.268;6.770;2023-11-19T15:27:12;18.87;;;4.40;;
21352;SDS011;10834;52.268;6.770;2023-11-19T15:29:56;15.90;;;4.07;;
21352;SDS011;10834;52.268;6.770;2023-11-19T15:32:40;24.03;;;5.00;;
21352;SDS011;10834;52.268;6.770;2023-11-19T15:35:26;15.87;;;3.50;;
21352;SDS011;10834;52.268;6.770;2023-11-19T15:38:10;14.87;;;3.33;;
21352;SDS011;10834;52.268;6.770;2023-11-19T15:40:54;26.33;;;5.10;;
21352;SDS011;10834;52.268;6.770;2023-11-19T15:43:38;23.97;;;4.77;;
21352;SDS011;10834;52.268;6.770;2023-11-19T15:46:23;20.93;;;5.03;;
21352;SDS011;10834;52.268;6.770;2023-11-19T15:49:07;18.90;;;5.07;;
21352;SDS011;10834;52.268;6.770;2023-11-19T15:51:51;24.17;;;5.87;;
21352;SDS011;10834;52.268;6.770;2023-11-19T15:54:35;19.60;;;5.27;;
21352;SDS011;10834;52.268;6.770;2023-11-19T15:57:20;23.90;;;5.07;;
21352;SDS011;10834;52.268;6.770;2023-11-19T16:00:04;20.57;;;5.33;;
21352;SDS011;10834;52.268;6.770;2023-11-19T16:02:49;28.43;;;5.67;;
21352;SDS011;10834;52.268;6.770;2023-11-19T16:05:34;22.10;;;6.80;;
21352;SDS011;10834;52.268;6.770;2023-11-19T16:08:18;19.90;;;5.33;;
21352;SDS011;10834;52.268;6.770;2023-11-19T16:11:02;20.43;;;5.57;;
21352;SDS011;10834;52.268;6.770;2023-11-19T16:13:46;28.23;;;5.80;;
21352;SDS011;10834;52.268;6.770;2023-11-19T16:16:30;20.90;;;5.50;;
21352;SDS011;10834;52.268;6.770;2023-11-19T16:19:14;20.80;;;4.97;;
21352;SDS011;10834;52.268;6.770;2023-11-19T16:21:58;15.80;;;4.70;;
21352;SDS011;10834;52.268;6.770;2023-11-19T16:24:53;19.00;;;4.80;;
21352;SDS011;10834;52.268;6.770;2023-11-19T16:27:38;24.27;;;4.93;;
21352;SDS011;10834;52.268;6.770;2023-11-19T16:30:23;22.20;;;4.93;;
21352;SDS011;10834;52.268;6.770;2023-11-19T16:33:07;22.37;;;5.13;;
21352;SDS011;10834;52.268;6.770;2023-11-19T16:35:52;25.63;;;5.87;;
21352;SDS011;10834;52.268;6.770;2023-11-19T16:38:41;18.17;;;5.10;;